sensor_id;sensor_type;location;lat;lon;timestamp;P1;durP1;ratioP1;P2;durP2;ratioP2
11907;SDS011;6014;47.690;9.130;2022-12-18T00:00:05;25.53;;;13.37;;
11907;SDS011;6014;47.690;9.130;2022-12-18T00:02:34;27.03;;;13.97;;
11907;SDS011;6014;47.690;9.130;2022-12-18T00:05:05;24.67;;;13.00;;
11907;SDS011;6014;47.690;9.130;2022-12-18T00:07:35;15.97;;;8.77;;
11907;SDS011;6014;47.690;9.130;2022-12-18T00:10:04;31.63;;;15.73;;
11907;SDS011;6014;47.690;9.130;2022-12-18T00:12:32;25.43;;;14.77;;
11907;SDS011;6014;47.690;9.130;2022-12-18T00:15:01;31.93;;;14.60;;
11907;SDS011;6014;47.690;9.130;2022-12-18T00:17:29;24.93;;;13.47;;
11907;SDS011;6014;47.690;9.130;2022-12-18T00:19:57;24.83;;;13.07;;
11907;SDS011;6014;47.690;9.130;2022-12-18T00:22:26;28.43;;;13.87;;
11907;SDS011;6014;47.690;9.130;2022-12-18T00:24:55;25.77;;;13.33;;
11907;SDS011;6014;47.690;9.130;2022-12-18T00:27:23;28.93;;;15.93;;
11907;SDS011;6014;47.690;9.130;2022-12-18T00:29:51;25.97;;;13.50;;
11907;SDS011;6014;47.690;9.130;2022-12-18T00:32:19;21.47;;;11.70;;
11907;SDS011;6014;47.690;9.130;2022-12-18T00:34:47;22.80;;;12.73;;
11907;SDS011;6014;47.690;9.130;2022-12-18T00:37:15;23.10;;;13.60;;
11907;SDS011;6014;47.690;9.130;2022-12-18T00:39:49;26.03;;;12.10;;
11907;SDS011;6014;47.690;9.130;2022-12-18T00:42:17;26.93;;;14.97;;
11907;SDS011;6014;47.690;9.130;2022-12-18T00:45:03;24.80;;;13.80;;
11907;SDS011;6014;47.690;9.130;2022-12-18T00:47:38;26.50;;;14.30;;
11907;SDS011;6014;47.690;9.130;2022-12-18T00:50:06;33.43;;;16.37;;
11907;SDS011;6014;47.690;9.130;2022-12-18T00:52:35;32.27;;;15.40;;
11907;SDS011;6014;47.690;9.130;2022-12-18T00:55:05;30.00;;;14.77;;
11907;SDS011;6014;47.690;9.130;2022-12-18T00:57:34;30.23;;;14.80;;
11907;SDS011;6014;47.690;9.130;2022-12-18T01:00:03;28.97;;;14.07;;
11907;SDS011;6014;47.690;9.130;2022-12-18T01:02:33;24.07;;;13.17;;
11907;SDS011;6014;47.690;9.130;2022-12-18T01:05:01;24.80;;;12.27;;
11907;SDS011;6014;47.690;9.130;2022-12-18T01:07:29;27.53;;;13.47;;
11907;SDS011;6014;47.690;9.130;2022-12-18T01:09:57;29.77;;;14.43;;
11907;SDS011;6014;47.690;9.130;2022-12-18T01:12:27;30.03;;;14.73;;
11907;SDS011;6014;47.690;9.130;2022-12-18T01:14:55;32.67;;;16.03;;
11907;SDS011;6014;47.690;9.130;2022-12-18T01:17:24;28.57;;;14.63;;
11907;SDS011;6014;47.690;9.130;2022-12-18T01:19:52;24.73;;;12.93;;
11907;SDS011;6014;47.690;9.130;2022-12-18T01:22:20;28.33;;;15.10;;
11907;SDS011;6014;47.690;9.130;2022-12-18T01:24:48;33.00;;;14.87;;
11907;SDS011;6014;47.690;9.130;2022-12-18T01:27:17;29.80;;;13.80;;
11907;SDS011;6014;47.690;9.130;2022-12-18T01:29:47;29.43;;;13.77;;
11907;SDS011;6014;47.690;9.130;2022-12-18T01:32:17;27.97;;;15.87;;
11907;SDS011;6014;47.690;9.130;2022-12-18T01:34:45;25.90;;;13.73;;
11907;SDS011;6014;47.690;9.130;2022-12-18T01:37:13;29.57;;;14.27;;
11907;SDS011;6014;47.690;9.130;2022-12-18T01:39:41;31.33;;;13.73;;
11907;SDS011;6014;47.690;9.130;2022-12-18T01:42:11;25.53;;;13.60;;
11907;SDS011;6014;47.690;9.130;2022-12-18T01:45:02;33.13;;;13.57;;
11907;SDS011;6014;47.690;9.130;2022-12-18T01:47:36;29.67;;;15.07;;
11907;SDS011;6014;47.690;9.130;2022-12-18T01:50:09;33.73;;;15.87;;
11907;SDS011;6014;47.690;9.130;2022-12-18T01:52:40;29.87;;;14.73;;
11907;SDS011;6014;47.690;9.130;2022-12-18T01:55:09;26.50;;;14.37;;
11907;SDS011;6014;47.690;9.130;2022-12-18T01:57:40;29.47;;;15.30;;
11907;SDS011;6014;47.690;9.130;2022-12-18T02:00:12;30.17;;;15.37;;
11907;SDS011;6014;47.690;9.130;2022-12-18T02:02:42;26.97;;;13.77;;
11907;SDS011;6014;47.690;9.130;2022-12-18T02:05:12;27.90;;;14.20;;
11907;SDS011;6014;47.690;9.130;2022-12-18T02:07:43;30.83;;;16.00;;
11907;SDS011;6014;47.690;9.130;2022-12-18T02:10:26;28.10;;;14.80;;
11907;SDS011;6014;47.690;9.130;2022-12-18T02:13:00;25.83;;;13.30;;
11907;SDS011;6014;47.690;9.130;2022-12-18T02:15:40;28.67;;;14.60;;
11907;SDS011;6014;47.690;9.130;2022-12-18T02:18:17;26.60;;;14.07;;
11907;SDS011;6014;47.690;9.130;2022-12-18T02:20:49;29.57;;;14.93;;
11907;SDS011;6014;47.690;9.130;2022-12-18T02:23:31;23.73;;;13.90;;
11907;SDS011;6014;47.690;9.130;2022-12-18T02:26:16;30.33;;;15.10;;
11907;SDS011;6014;47.690;9.130;2022-12-18T02:28:49;31.13;;;16.00;;
11907;SDS011;6014;47.690;9.130;2022-12-18T02:31:21;30.47;;;13.97;;
11907;SDS011;6014;47.690;9.130;2022-12-18T02:33:53;31.20;;;16.17;;
11907;SDS011;6014;47.690;9.130;2022-12-18T02:36:23;31.20;;;14.57;;
11907;SDS011;6014;47.690;9.130;2022-12-18T02:38:55;31.97;;;15.17;;
11907;SDS011;6014;47.690;9.130;2022-12-18T02:41:25;27.20;;;13.43;;
11907;SDS011;6014;47.690;9.130;2022-12-18T02:43:55;36.13;;;14.83;;
11907;SDS011;6014;47.690;9.130;2022-12-18T02:46:29;27.60;;;13.37;;
11907;SDS011;6014;47.690;9.130;2022-12-18T02:49:06;31.70;;;14.10;;
11907;SDS011;6014;47.690;9.130;2022-12-18T02:51:47;23.60;;;12.30;;
11907;SDS011;6014;47.690;9.130;2022-12-18T02:54:22;20.63;;;10.77;;
11907;SDS011;6014;47.690;9.130;2022-12-18T02:57:05;23.27;;;12.40;;
11907;SDS011;6014;47.690;9.130;2022-12-18T02:59:44;25.57;;;11.37;;
11907;SDS011;6014;47.690;9.130;2022-12-18T03:02:20;25.00;;;12.73;;
11907;SDS011;6014;47.690;9.130;2022-12-18T03:04:54;28.03;;;12.80;;
11907;SDS011;6014;47.690;9.130;2022-12-18T03:07:26;26.10;;;12.47;;
11907;SDS011;6014;47.690;9.130;2022-12-18T03:10:02;21.20;;;11.93;;
11907;SDS011;6014;47.690;9.130;2022-12-18T03:12:32;27.77;;;12.40;;
11907;SDS011;6014;47.690;9.130;2022-12-18T03:15:07;24.70;;;12.97;;
11907;SDS011;6014;47.690;9.130;2022-12-18T03:17:44;24.93;;;11.50;;
11907;SDS011;6014;47.690;9.130;2022-12-18T03:20:17;27.43;;;12.87;;
11907;SDS011;6014;47.690;9.130;2022-12-18T03:22:50;25.97;;;12.53;;
11907;SDS011;6014;47.690;9.130;2022-12-18T03:25:21;29.57;;;13.00;;
11907;SDS011;6014;47.690;9.130;2022-12-18T03:27:54;22.53;;;11.20;;
11907;SDS011;6014;47.690;9.130;2022-12-18T03:30:26;27.43;;;11.57;;
11907;SDS011;6014;47.690;9.130;2022-12-18T03:33:01;24.70;;;10.53;;
11907;SDS011;6014;47.690;9.130;2022-12-18T03:35:39;25.07;;;12.47;;
11907;SDS011;6014;47.690;9.130;2022-12-18T03:38:10;24.63;;;12.57;;
11907;SDS011;6014;47.690;9.130;2022-12-18T03:40:43;23.20;;;11.97;;
11907;SDS011;6014;47.690;9.130;2022-12-18T03:43:20;21.90;;;12.13;;
11907;SDS011;6014;47.690;9.130;2022-12-18T03:45:59;23.63;;;12.83;;
11907;SDS011;6014;47.690;9.130;2022-12-18T03:48:31;24.83;;;13.07;;
11907;SDS011;6014;47.690;9.130;2022-12-18T03:51:06;26.03;;;12.83;;
11907;SDS011;6014;47.690;9.130;2022-12-18T03:53:39;25.80;;;11.90;;
11907;SDS011;6014;47.690;9.130;2022-12-18T03:56:13;25.17;;;12.00;;
11907;SDS011;6014;47.690;9.130;2022-12-18T03:58:45;22.83;;;12.03;;
11907;SDS011;6014;47.690;9.130;2022-12-18T04:01:15;25.33;;;12.90;;
11907;SDS011;6014;47.690;9.130;2022-12-18T04:03:45;24.13;;;12.93;;
11907;SDS011;6014;47.690;9.130;2022-12-18T04:06:16;22.53;;;10.80;;
11907;SDS011;6014;47.690;9.130;2022-12-18T04:08:47;25.20;;;12.83;;
11907;SDS011;6014;47.690;9.130;2022-12-18T04:11:15;24.43;;;12.80;;
11907;SDS011;6014;47.690;9.130;2022-12-18T04:13:45;22.73;;;10.43;;
11907;SDS011;6014;47.690;9.130;2022-12-18T04:16:15;24.63;;;11.90;;
11907;SDS011;6014;47.690;9.130;2022-12-18T04:18:43;21.17;;;12.43;;
11907;SDS011;6014;47.690;9.130;2022-12-18T04:21:11;25.53;;;12.53;;
11907;SDS011;6014;47.690;9.130;2022-12-18T04:23:39;22.13;;;12.37;;
11907;SDS011;6014;47.690;9.130;2022-12-18T04:26:11;23.57;;;11.90;;
11907;SDS011;6014;47.690;9.130;2022-12-18T04:28:50;25.53;;;11.90;;
11907;SDS011;6014;47.690;9.130;2022-12-18T04:31:22;27.70;;;12.80;;
11907;SDS011;6014;47.690;9.130;2022-12-18T04:33:50;23.33;;;12.17;;
11907;SDS011;6014;47.690;9.130;2022-12-18T04:36:19;24.27;;;11.33;;
11907;SDS011;6014;47.690;9.130;2022-12-18T04:38:47;25.33;;;12.40;;
11907;SDS011;6014;47.690;9.130;2022-12-18T04:41:17;22.27;;;10.67;;
11907;SDS011;6014;47.690;9.130;2022-12-18T04:43:45;25.43;;;12.53;;
11907;SDS011;6014;47.690;9.130;2022-12-18T04:46:17;27.57;;;12.93;;
11907;SDS011;6014;47.690;9.130;2022-12-18T04:48:46;23.97;;;11.43;;
11907;SDS011;6014;47.690;9.130;2022-12-18T04:51:32;23.53;;;11.87;;
11907;SDS011;6014;47.690;9.130;2022-12-18T04:54:00;23.87;;;11.93;;
11907;SDS011;6014;47.690;9.130;2022-12-18T04:56:30;27.57;;;12.53;;
11907;SDS011;6014;47.690;9.130;2022-12-18T04:58:59;25.17;;;11.67;;
11907;SDS011;6014;47.690;9.130;2022-12-18T05:01:33;23.53;;;12.17;;
11907;SDS011;6014;47.690;9.130;2022-12-18T05:04:07;24.73;;;12.03;;
11907;SDS011;6014;47.690;9.130;2022-12-18T05:06:37;23.37;;;12.20;;
11907;SDS011;6014;47.690;9.130;2022-12-18T05:09:06;22.83;;;12.13;;
11907;SDS011;6014;47.690;9.130;2022-12-18T05:11:34;22.63;;;11.53;;
11907;SDS011;6014;47.690;9.130;2022-12-18T05:14:03;26.20;;;12.67;;
11907;SDS011;6014;47.690;9.130;2022-12-18T05:16:33;22.73;;;12.63;;
11907;SDS011;6014;47.690;9.130;2022-12-18T05:19:01;26.67;;;12.03;;
11907;SDS011;6014;47.690;9.130;2022-12-18T05:21:30;23.60;;;11.47;;
11907;SDS011;6014;47.690;9.130;2022-12-18T05:24:01;26.83;;;12.47;;
11907;SDS011;6014;47.690;9.130;2022-12-18T05:26:29;27.27;;;12.47;;
11907;SDS011;6014;47.690;9.130;2022-12-18T05:28:57;24.97;;;12.20;;
11907;SDS011;6014;47.690;9.130;2022-12-18T05:31:25;23.73;;;11.93;;
11907;SDS011;6014;47.690;9.130;2022-12-18T05:33:55;25.33;;;12.63;;
11907;SDS011;6014;47.690;9.130;2022-12-18T05:36:23;26.73;;;11.33;;
11907;SDS011;6014;47.690;9.130;2022-12-18T05:38:51;26.07;;;11.90;;
11907;SDS011;6014;47.690;9.130;2022-12-18T05:41:20;26.20;;;13.03;;
11907;SDS011;6014;47.690;9.130;2022-12-18T05:43:48;25.53;;;13.10;;
11907;SDS011;6014;47.690;9.130;2022-12-18T05:46:16;22.43;;;11.00;;
11907;SDS011;6014;47.690;9.130;2022-12-18T05:48:45;23.43;;;11.60;;
11907;SDS011;6014;47.690;9.130;2022-12-18T05:51:16;27.13;;;12.80;;
11907;SDS011;6014;47.690;9.130;2022-12-18T05:53:46;24.90;;;11.83;;
11907;SDS011;6014;47.690;9.130;2022-12-18T05:56:14;23.37;;;11.77;;
11907;SDS011;6014;47.690;9.130;2022-12-18T05:58:44;24.43;;;11.47;;
11907;SDS011;6014;47.690;9.130;2022-12-18T06:01:14;26.37;;;11.27;;
11907;SDS011;6014;47.690;9.130;2022-12-18T06:03:45;22.47;;;11.33;;
11907;SDS011;6014;47.690;9.130;2022-12-18T06:06:16;25.33;;;12.60;;
11907;SDS011;6014;47.690;9.130;2022-12-18T06:08:46;41.70;;;19.30;;
11907;SDS011;6014;47.690;9.130;2022-12-18T06:11:16;53.83;;;23.57;;
11907;SDS011;6014;47.690;9.130;2022-12-18T06:13:49;31.30;;;14.87;;
11907;SDS011;6014;47.690;9.130;2022-12-18T06:16:23;70.03;;;28.40;;
11907;SDS011;6014;47.690;9.130;2022-12-18T06:18:52;25.63;;;11.37;;
11907;SDS011;6014;47.690;9.130;2022-12-18T06:21:21;26.37;;;12.17;;
11907;SDS011;6014;47.690;9.130;2022-12-18T06:23:49;50.50;;;22.20;;
11907;SDS011;6014;47.690;9.130;2022-12-18T06:26:17;32.03;;;14.47;;
11907;SDS011;6014;47.690;9.130;2022-12-18T06:28:53;40.87;;;21.77;;
11907;SDS011;6014;47.690;9.130;2022-12-18T06:31:21;67.07;;;30.57;;
11907;SDS011;6014;47.690;9.130;2022-12-18T06:33:49;142.53;;;57.07;;
11907;SDS011;6014;47.690;9.130;2022-12-18T06:36:18;127.90;;;54.20;;
11907;SDS011;6014;47.690;9.130;2022-12-18T06:38:48;39.27;;;19.63;;
11907;SDS011;6014;47.690;9.130;2022-12-18T06:41:17;27.67;;;13.30;;
11907;SDS011;6014;47.690;9.130;2022-12-18T06:43:47;26.77;;;13.53;;
11907;SDS011;6014;47.690;9.130;2022-12-18T06:46:15;25.27;;;12.33;;
11907;SDS011;6014;47.690;9.130;2022-12-18T06:48:46;24.93;;;12.30;;
11907;SDS011;6014;47.690;9.130;2022-12-18T06:51:17;26.63;;;10.93;;
11907;SDS011;6014;47.690;9.130;2022-12-18T06:53:47;27.07;;;12.57;;
11907;SDS011;6014;47.690;9.130;2022-12-18T06:56:16;28.77;;;12.47;;
11907;SDS011;6014;47.690;9.130;2022-12-18T06:58:44;29.47;;;13.87;;
11907;SDS011;6014;47.690;9.130;2022-12-18T07:01:13;27.87;;;13.43;;
11907;SDS011;6014;47.690;9.130;2022-12-18T07:03:41;22.80;;;11.13;;
11907;SDS011;6014;47.690;9.130;2022-12-18T07:06:12;27.93;;;13.50;;
11907;SDS011;6014;47.690;9.130;2022-12-18T07:08:42;26.27;;;11.90;;
11907;SDS011;6014;47.690;9.130;2022-12-18T07:11:12;26.47;;;12.87;;
11907;SDS011;6014;47.690;9.130;2022-12-18T07:13:40;31.63;;;14.33;;
11907;SDS011;6014;47.690;9.130;2022-12-18T07:16:09;20.83;;;11.60;;
11907;SDS011;6014;47.690;9.130;2022-12-18T07:18:49;21.03;;;11.73;;
11907;SDS011;6014;47.690;9.130;2022-12-18T07:21:18;24.97;;;12.17;;
11907;SDS011;6014;47.690;9.130;2022-12-18T07:23:46;23.47;;;11.83;;
11907;SDS011;6014;47.690;9.130;2022-12-18T07:26:19;29.13;;;15.13;;
11907;SDS011;6014;47.690;9.130;2022-12-18T07:28:49;28.83;;;13.80;;
11907;SDS011;6014;47.690;9.130;2022-12-18T07:31:18;20.13;;;11.27;;
11907;SDS011;6014;47.690;9.130;2022-12-18T07:33:48;29.17;;;14.07;;
11907;SDS011;6014;47.690;9.130;2022-12-18T07:36:18;25.27;;;12.53;;
11907;SDS011;6014;47.690;9.130;2022-12-18T07:38:46;22.10;;;11.93;;
11907;SDS011;6014;47.690;9.130;2022-12-18T07:41:18;27.47;;;13.27;;
11907;SDS011;6014;47.690;9.130;2022-12-18T07:43:47;25.17;;;12.47;;
11907;SDS011;6014;47.690;9.130;2022-12-18T07:46:16;29.70;;;13.43;;
11907;SDS011;6014;47.690;9.130;2022-12-18T07:48:44;25.23;;;11.70;;
11907;SDS011;6014;47.690;9.130;2022-12-18T07:51:15;23.97;;;11.90;;
11907;SDS011;6014;47.690;9.130;2022-12-18T07:53:44;27.53;;;13.30;;
11907;SDS011;6014;47.690;9.130;2022-12-18T07:56:19;27.33;;;13.30;;
11907;SDS011;6014;47.690;9.130;2022-12-18T07:58:53;22.60;;;11.47;;
11907;SDS011;6014;47.690;9.130;2022-12-18T08:01:22;26.43;;;13.00;;
11907;SDS011;6014;47.690;9.130;2022-12-18T08:03:50;31.60;;;12.70;;
11907;SDS011;6014;47.690;9.130;2022-12-18T08:06:18;24.47;;;11.60;;
11907;SDS011;6014;47.690;9.130;2022-12-18T08:08:50;24.30;;;12.47;;
11907;SDS011;6014;47.690;9.130;2022-12-18T08:11:20;25.87;;;13.77;;
11907;SDS011;6014;47.690;9.130;2022-12-18T08:13:49;32.50;;;16.43;;
11907;SDS011;6014;47.690;9.130;2022-12-18T08:16:18;32.03;;;14.43;;
11907;SDS011;6014;47.690;9.130;2022-12-18T08:18:47;29.27;;;13.77;;
11907;SDS011;6014;47.690;9.130;2022-12-18T08:21:16;30.33;;;14.43;;
11907;SDS011;6014;47.690;9.130;2022-12-18T08:23:47;28.07;;;14.03;;
11907;SDS011;6014;47.690;9.130;2022-12-18T08:26:19;32.33;;;13.83;;
11907;SDS011;6014;47.690;9.130;2022-12-18T08:28:50;28.30;;;13.87;;
11907;SDS011;6014;47.690;9.130;2022-12-18T08:31:19;29.40;;;13.50;;
11907;SDS011;6014;47.690;9.130;2022-12-18T08:33:48;23.87;;;12.67;;
11907;SDS011;6014;47.690;9.130;2022-12-18T08:36:17;28.97;;;13.43;;
11907;SDS011;6014;47.690;9.130;2022-12-18T08:38:46;25.90;;;13.37;;
11907;SDS011;6014;47.690;9.130;2022-12-18T08:41:17;27.73;;;11.80;;
11907;SDS011;6014;47.690;9.130;2022-12-18T08:43:47;23.07;;;12.10;;
11907;SDS011;6014;47.690;9.130;2022-12-18T08:46:35;29.80;;;13.17;;
11907;SDS011;6014;47.690;9.130;2022-12-18T08:49:05;31.70;;;13.97;;
11907;SDS011;6014;47.690;9.130;2022-12-18T08:51:35;24.40;;;12.87;;
11907;SDS011;6014;47.690;9.130;2022-12-18T08:54:04;29.57;;;13.43;;
11907;SDS011;6014;47.690;9.130;2022-12-18T08:56:34;29.93;;;13.50;;
11907;SDS011;6014;47.690;9.130;2022-12-18T08:59:04;22.27;;;11.20;;
11907;SDS011;6014;47.690;9.130;2022-12-18T09:01:33;27.73;;;12.43;;
11907;SDS011;6014;47.690;9.130;2022-12-18T09:04:03;27.60;;;12.90;;
11907;SDS011;6014;47.690;9.130;2022-12-18T09:06:34;26.70;;;12.50;;
11907;SDS011;6014;47.690;9.130;2022-12-18T09:09:04;26.77;;;12.90;;
11907;SDS011;6014;47.690;9.130;2022-12-18T09:11:34;29.90;;;13.87;;
11907;SDS011;6014;47.690;9.130;2022-12-18T09:14:03;28.60;;;13.43;;
11907;SDS011;6014;47.690;9.130;2022-12-18T09:16:32;28.03;;;14.93;;
11907;SDS011;6014;47.690;9.130;2022-12-18T09:19:02;31.80;;;14.73;;
11907;SDS011;6014;47.690;9.130;2022-12-18T09:21:34;30.83;;;14.77;;
11907;SDS011;6014;47.690;9.130;2022-12-18T09:24:03;25.40;;;12.63;;
11907;SDS011;6014;47.690;9.130;2022-12-18T09:26:37;30.93;;;13.40;;
11907;SDS011;6014;47.690;9.130;2022-12-18T09:29:05;26.63;;;13.50;;
11907;SDS011;6014;47.690;9.130;2022-12-18T09:31:35;28.30;;;13.10;;
11907;SDS011;6014;47.690;9.130;2022-12-18T09:34:05;29.57;;;14.30;;
11907;SDS011;6014;47.690;9.130;2022-12-18T09:36:33;25.77;;;12.90;;
11907;SDS011;6014;47.690;9.130;2022-12-18T09:39:02;27.53;;;12.73;;
11907;SDS011;6014;47.690;9.130;2022-12-18T09:41:40;27.60;;;13.83;;
11907;SDS011;6014;47.690;9.130;2022-12-18T09:44:19;27.67;;;14.27;;
11907;SDS011;6014;47.690;9.130;2022-12-18T09:46:54;30.00;;;15.10;;
11907;SDS011;6014;47.690;9.130;2022-12-18T09:49:30;29.40;;;13.37;;
11907;SDS011;6014;47.690;9.130;2022-12-18T09:52:02;28.33;;;13.17;;
11907;SDS011;6014;47.690;9.130;2022-12-18T09:54:33;29.17;;;14.40;;
11907;SDS011;6014;47.690;9.130;2022-12-18T09:57:16;24.97;;;11.50;;
11907;SDS011;6014;47.690;9.130;2022-12-18T09:59:48;24.57;;;11.77;;
11907;SDS011;6014;47.690;9.130;2022-12-18T10:02:21;29.77;;;14.03;;
11907;SDS011;6014;47.690;9.130;2022-12-18T10:05:00;25.00;;;13.63;;
11907;SDS011;6014;47.690;9.130;2022-12-18T10:07:34;26.13;;;13.03;;
11907;SDS011;6014;47.690;9.130;2022-12-18T10:10:14;24.80;;;12.93;;
11907;SDS011;6014;47.690;9.130;2022-12-18T10:12:53;30.43;;;13.23;;
11907;SDS011;6014;47.690;9.130;2022-12-18T10:15:31;27.83;;;13.57;;
11907;SDS011;6014;47.690;9.130;2022-12-18T10:18:12;28.03;;;13.23;;
11907;SDS011;6014;47.690;9.130;2022-12-18T10:20:51;30.13;;;13.50;;
11907;SDS011;6014;47.690;9.130;2022-12-18T10:23:23;26.23;;;12.70;;
11907;SDS011;6014;47.690;9.130;2022-12-18T10:25:59;25.27;;;12.30;;
11907;SDS011;6014;47.690;9.130;2022-12-18T10:28:35;22.00;;;10.77;;
11907;SDS011;6014;47.690;9.130;2022-12-18T10:31:06;24.07;;;11.73;;
11907;SDS011;6014;47.690;9.130;2022-12-18T10:33:41;24.47;;;11.97;;
11907;SDS011;6014;47.690;9.130;2022-12-18T10:36:10;19.83;;;11.07;;
11907;SDS011;6014;47.690;9.130;2022-12-18T10:38:38;24.90;;;11.83;;
11907;SDS011;6014;47.690;9.130;2022-12-18T10:41:23;27.00;;;13.10;;
11907;SDS011;6014;47.690;9.130;2022-12-18T10:44:12;23.27;;;11.37;;
11907;SDS011;6014;47.690;9.130;2022-12-18T10:46:46;23.73;;;9.57;;
11907;SDS011;6014;47.690;9.130;2022-12-18T10:49:21;26.13;;;11.83;;
11907;SDS011;6014;47.690;9.130;2022-12-18T10:52:03;21.07;;;10.50;;
11907;SDS011;6014;47.690;9.130;2022-12-18T10:54:33;24.23;;;11.67;;
11907;SDS011;6014;47.690;9.130;2022-12-18T10:57:16;26.07;;;11.27;;
11907;SDS011;6014;47.690;9.130;2022-12-18T10:59:59;24.20;;;12.47;;
11907;SDS011;6014;47.690;9.130;2022-12-18T11:02:43;27.33;;;12.67;;
11907;SDS011;6014;47.690;9.130;2022-12-18T11:05:22;30.10;;;12.80;;
11907;SDS011;6014;47.690;9.130;2022-12-18T11:07:53;26.13;;;12.63;;
11907;SDS011;6014;47.690;9.130;2022-12-18T11:10:23;25.33;;;11.33;;
11907;SDS011;6014;47.690;9.130;2022-12-18T11:13:08;27.53;;;12.57;;
11907;SDS011;6014;47.690;9.130;2022-12-18T11:15:41;23.13;;;10.87;;
11907;SDS011;6014;47.690;9.130;2022-12-18T11:18:15;22.80;;;12.40;;
11907;SDS011;6014;47.690;9.130;2022-12-18T11:20:51;22.67;;;10.87;;
11907;SDS011;6014;47.690;9.130;2022-12-18T11:23:25;22.50;;;10.33;;
11907;SDS011;6014;47.690;9.130;2022-12-18T11:25:56;30.30;;;12.97;;
11907;SDS011;6014;47.690;9.130;2022-12-18T11:28:27;25.40;;;12.33;;
11907;SDS011;6014;47.690;9.130;2022-12-18T11:31:23;22.13;;;11.00;;
11907;SDS011;6014;47.690;9.130;2022-12-18T11:34:00;24.37;;;11.60;;
11907;SDS011;6014;47.690;9.130;2022-12-18T11:36:52;27.67;;;12.67;;
11907;SDS011;6014;47.690;9.130;2022-12-18T11:39:24;24.10;;;11.83;;
11907;SDS011;6014;47.690;9.130;2022-12-18T11:42:00;26.60;;;11.80;;
11907;SDS011;6014;47.690;9.130;2022-12-18T11:44:40;23.50;;;10.97;;
11907;SDS011;6014;47.690;9.130;2022-12-18T11:47:16;27.53;;;12.50;;
11907;SDS011;6014;47.690;9.130;2022-12-18T11:49:52;25.03;;;12.17;;
11907;SDS011;6014;47.690;9.130;2022-12-18T11:52:23;25.20;;;13.00;;
11907;SDS011;6014;47.690;9.130;2022-12-18T11:54:56;24.70;;;13.13;;
11907;SDS011;6014;47.690;9.130;2022-12-18T11:57:31;23.77;;;11.50;;
11907;SDS011;6014;47.690;9.130;2022-12-18T12:00:10;26.57;;;12.30;;
11907;SDS011;6014;47.690;9.130;2022-12-18T12:02:56;22.10;;;11.10;;
11907;SDS011;6014;47.690;9.130;2022-12-18T12:05:46;23.63;;;11.37;;
11907;SDS011;6014;47.690;9.130;2022-12-18T12:08:24;22.03;;;11.20;;
11907;SDS011;6014;47.690;9.130;2022-12-18T12:11:04;23.67;;;10.23;;
11907;SDS011;6014;47.690;9.130;2022-12-18T12:13:44;26.33;;;11.83;;
11907;SDS011;6014;47.690;9.130;2022-12-18T12:16:22;24.57;;;10.63;;
11907;SDS011;6014;47.690;9.130;2022-12-18T12:19:02;26.17;;;10.97;;
11907;SDS011;6014;47.690;9.130;2022-12-18T12:21:45;22.13;;;10.07;;
11907;SDS011;6014;47.690;9.130;2022-12-18T12:24:25;21.60;;;10.20;;
11907;SDS011;6014;47.690;9.130;2022-12-18T12:27:03;25.10;;;10.77;;
11907;SDS011;6014;47.690;9.130;2022-12-18T12:29:42;22.87;;;10.63;;
11907;SDS011;6014;47.690;9.130;2022-12-18T12:32:22;24.03;;;11.47;;
11907;SDS011;6014;47.690;9.130;2022-12-18T12:35:05;22.13;;;10.23;;
11907;SDS011;6014;47.690;9.130;2022-12-18T12:37:47;24.67;;;11.63;;
11907;SDS011;6014;47.690;9.130;2022-12-18T12:40:23;20.87;;;11.47;;
11907;SDS011;6014;47.690;9.130;2022-12-18T12:43:27;23.03;;;10.27;;
11907;SDS011;6014;47.690;9.130;2022-12-18T12:46:00;30.43;;;17.07;;
11907;SDS011;6014;47.690;9.130;2022-12-18T12:48:52;27.27;;;13.60;;
11907;SDS011;6014;47.690;9.130;2022-12-18T12:51:25;23.00;;;12.10;;
11907;SDS011;6014;47.690;9.130;2022-12-18T12:53:56;23.90;;;12.53;;
11907;SDS011;6014;47.690;9.130;2022-12-18T12:56:27;24.47;;;11.97;;
11907;SDS011;6014;47.690;9.130;2022-12-18T12:59:10;28.53;;;12.63;;
11907;SDS011;6014;47.690;9.130;2022-12-18T13:01:48;25.23;;;12.50;;
11907;SDS011;6014;47.690;9.130;2022-12-18T13:04:23;22.10;;;11.17;;
11907;SDS011;6014;47.690;9.130;2022-12-18T13:07:03;26.70;;;12.03;;
11907;SDS011;6014;47.690;9.130;2022-12-18T13:12:55;22.40;;;11.17;;
11907;SDS011;6014;47.690;9.130;2022-12-18T13:15:36;25.93;;;12.67;;
11907;SDS011;6014;47.690;9.130;2022-12-18T13:18:14;27.33;;;12.63;;
11907;SDS011;6014;47.690;9.130;2022-12-18T13:20:49;22.10;;;11.23;;
11907;SDS011;6014;47.690;9.130;2022-12-18T13:23:36;26.97;;;12.87;;
11907;SDS011;6014;47.690;9.130;2022-12-18T13:28:59;21.20;;;11.87;;
11907;SDS011;6014;47.690;9.130;2022-12-18T13:34:36;24.90;;;10.87;;
11907;SDS011;6014;47.690;9.130;2022-12-18T13:43:29;23.73;;;11.87;;
11907;SDS011;6014;47.690;9.130;2022-12-18T13:46:01;24.60;;;11.27;;
11907;SDS011;6014;47.690;9.130;2022-12-18T13:48:32;23.90;;;11.40;;
11907;SDS011;6014;47.690;9.130;2022-12-18T13:51:04;23.60;;;12.07;;
11907;SDS011;6014;47.690;9.130;2022-12-18T13:53:38;22.20;;;11.50;;
11907;SDS011;6014;47.690;9.130;2022-12-18T13:56:15;24.83;;;10.90;;
11907;SDS011;6014;47.690;9.130;2022-12-18T13:58:46;22.70;;;11.93;;
11907;SDS011;6014;47.690;9.130;2022-12-18T14:01:34;25.23;;;12.60;;
11907;SDS011;6014;47.690;9.130;2022-12-18T14:04:10;20.37;;;10.60;;
11907;SDS011;6014;47.690;9.130;2022-12-18T14:06:39;25.60;;;11.30;;
11907;SDS011;6014;47.690;9.130;2022-12-18T14:09:13;23.73;;;11.43;;
11907;SDS011;6014;47.690;9.130;2022-12-18T14:11:47;25.67;;;12.53;;
11907;SDS011;6014;47.690;9.130;2022-12-18T14:14:19;25.27;;;11.50;;
11907;SDS011;6014;47.690;9.130;2022-12-18T14:16:50;26.07;;;12.20;;
11907;SDS011;6014;47.690;9.130;2022-12-18T14:19:18;25.80;;;12.10;;
11907;SDS011;6014;47.690;9.130;2022-12-18T14:21:48;23.67;;;11.80;;
11907;SDS011;6014;47.690;9.130;2022-12-18T14:24:19;26.63;;;11.80;;
11907;SDS011;6014;47.690;9.130;2022-12-18T14:26:51;23.23;;;11.43;;
11907;SDS011;6014;47.690;9.130;2022-12-18T14:29:25;24.10;;;11.47;;
11907;SDS011;6014;47.690;9.130;2022-12-18T14:32:05;24.43;;;11.73;;
11907;SDS011;6014;47.690;9.130;2022-12-18T14:34:43;28.00;;;12.47;;
11907;SDS011;6014;47.690;9.130;2022-12-18T14:37:12;26.13;;;11.30;;
11907;SDS011;6014;47.690;9.130;2022-12-18T14:39:52;25.40;;;12.60;;
11907;SDS011;6014;47.690;9.130;2022-12-18T14:42:21;29.10;;;14.13;;
11907;SDS011;6014;47.690;9.130;2022-12-18T14:48:13;23.90;;;12.47;;
11907;SDS011;6014;47.690;9.130;2022-12-18T14:50:56;23.10;;;10.30;;
11907;SDS011;6014;47.690;9.130;2022-12-18T14:56:21;22.93;;;9.63;;
11907;SDS011;6014;47.690;9.130;2022-12-18T14:58:52;25.87;;;11.03;;
11907;SDS011;6014;47.690;9.130;2022-12-18T15:01:24;25.83;;;11.53;;
11907;SDS011;6014;47.690;9.130;2022-12-18T15:03:56;21.57;;;10.80;;
11907;SDS011;6014;47.690;9.130;2022-12-18T15:06:27;24.30;;;10.97;;
11907;SDS011;6014;47.690;9.130;2022-12-18T15:08:58;18.53;;;9.33;;
11907;SDS011;6014;47.690;9.130;2022-12-18T15:11:27;23.67;;;11.10;;
11907;SDS011;6014;47.690;9.130;2022-12-18T15:14:28;23.83;;;10.80;;
11907;SDS011;6014;47.690;9.130;2022-12-18T15:17:03;22.50;;;10.43;;
11907;SDS011;6014;47.690;9.130;2022-12-18T15:19:42;27.63;;;13.93;;
11907;SDS011;6014;47.690;9.130;2022-12-18T15:22:17;22.23;;;10.27;;
11907;SDS011;6014;47.690;9.130;2022-12-18T15:24:48;22.63;;;10.00;;
11907;SDS011;6014;47.690;9.130;2022-12-18T15:27:25;23.00;;;11.10;;
11907;SDS011;6014;47.690;9.130;2022-12-18T15:29:59;25.53;;;11.40;;